Time;durP1;ratioP1;P1;durP2;ratioP2;P2;SDS_P1;SDS_P2;PMS_P1;PMS_P2;Temp;Humidity;BMP_temperature;BMP_pressure;BME280_temperature;BME280_humidity;BME280_pressure;Samples;Min_cycle;Max_cycle;Signal;HPM_P1;HPM_P2
2023/05/07 00:02:11;;;;;;;2.23;1.80;;;;;;;16.28;61.34;98892.41;4956861;28;42408;-78
2023/05/07 00:04:39;;;;;;;1.83;1.63;;;;;;;16.24;61.09;98888.31;4940797;28;40021;-79
2023/05/07 00:07:06;;;;;;;1.90;1.70;;;;;;;16.22;61.15;98882.22;4940909;28;40870;-78
2023/05/07 00:09:34;;;;;;;2.00;1.80;;;;;;;16.30;61.61;98890.47;4940832;28;41999;-77
2023/05/07 00:12:02;;;;;;;2.13;1.77;;;;;;;16.30;61.71;98885.13;4956768;28;41151;-78
2023/05/07 00:14:29;;;;;;;1.50;1.40;;;;;;;16.30;61.48;98885.13;4956770;28;40223;-77
2023/05/07 00:16:57;;;;;;;2.27;1.70;;;;;;;16.29;61.66;98892.28;4956996;28;41584;-77
2023/05/07 00:19:26;;;;;;;2.33;2.13;;;;;;;16.27;62.35;98880.88;4940568;28;42496;-78
2023/05/07 00:21:54;;;;;;;2.77;1.70;;;;;;;16.23;62.08;98874.09;4956299;28;40933;-79
2023/05/07 00:24:21;;;;;;;1.70;1.60;;;;;;;16.22;61.68;98884.91;4940463;28;39393;-76
2023/05/07 00:26:49;;;;;;;1.53;1.43;;;;;;;16.10;61.50;98868.94;4956760;28;41905;-77
2023/05/07 00:29:16;;;;;;;1.80;1.70;;;;;;;16.11;61.58;98875.97;4956404;28;42795;-78
2023/05/07 00:31:44;;;;;;;1.50;1.40;;;;;;;16.14;61.73;98881.06;4940561;28;41438;-76
2023/05/07 00:34:11;;;;;;;2.13;1.50;;;;;;;16.11;61.70;98875.97;4956535;28;40905;-77
2023/05/07 00:36:40;;;;;;;2.37;2.00;;;;;;;16.06;61.73;98872.88;4956610;28;42777;-77
2023/05/07 00:39:08;;;;;;;1.90;1.70;;;;;;;16.08;61.72;98888.75;4972489;28;41870;-77
2023/05/07 00:41:36;;;;;;;2.43;1.90;;;;;;;16.07;61.37;98895.09;4956520;28;42604;-79
2023/05/07 00:44:03;;;;;;;1.77;1.67;;;;;;;16.04;61.80;98887.34;4940063;28;38841;-77
2023/05/07 00:46:32;;;;;;;2.17;2.07;;;;;;;16.00;61.71;98886.72;4956313;28;42758;-78
2023/05/07 00:49:00;;;;;;;1.80;1.70;;;;;;;15.97;61.26;98886.97;4940265;28;43243;-79
2023/05/07 00:51:29;;;;;;;1.57;1.30;;;;;;;15.92;61.30;98883.88;4940090;28;42587;-78
2023/05/07 00:53:58;;;;;;;1.50;1.40;;;;;;;15.88;61.09;98890.44;4956108;28;39828;-77
2023/05/07 00:56:26;;;;;;;1.60;1.50;;;;;;;15.84;61.49;98883.63;4956274;28;42025;-78
2023/05/07 00:58:54;;;;;;;1.47;1.37;;;;;;;15.79;61.35;98880.53;4939546;28;41221;-77
2023/05/07 01:01:22;;;;;;;1.40;1.30;;;;;;;15.75;61.56;98873.75;4955782;28;42241;-79
2023/05/07 01:03:49;;;;;;;1.37;1.27;;;;;;;15.59;61.43;98851.94;4973373;28;40033;-77
2023/05/07 01:06:18;;;;;;;1.53;1.43;;;;;;;15.56;61.83;98857.56;4956124;28;41570;-78
2023/05/07 01:08:46;;;;;;;1.40;1.30;;;;;;;15.61;61.99;98868.69;4973133;28;43659;-78
2023/05/07 01:11:16;;;;;;;1.70;1.60;;;;;;;15.53;61.91;98865.78;4939658;28;41189;-78
2023/05/07 01:13:45;;;;;;;1.50;1.40;;;;;;;15.52;62.36;98869.44;4939598;28;39984;-77
2023/05/07 01:16:13;;;;;;;1.60;1.50;;;;;;;15.48;62.33;98871.50;4956039;28;41767;-78
2023/05/07 01:18:41;;;;;;;1.70;1.40;;;;;;;15.43;62.37;98879.91;4939369;28;42601;-77
2023/05/07 01:21:12;;;;;;;1.47;1.40;;;;;;;15.39;62.49;98864.25;4939805;28;40720;-78
2023/05/07 01:23:42;;;;;;;2.00;1.80;;;;;;;15.31;62.71;98856.88;4939977;28;38984;-77
2023/05/07 01:26:32;;;;;;;2.97;2.00;;;;;;;15.32;62.99;98865.75;4939605;28;40798;-77
2023/05/07 01:29:00;;;;;;;1.70;1.60;;;;;;;15.28;63.10;98865.13;4955403;28;41709;-77
2023/05/07 01:31:30;;;;;;;1.63;1.53;;;;;;;15.24;63.80;98853.00;4939590;28;42650;-77
2023/05/07 01:34:00;;;;;;;2.17;1.97;;;;;;;15.20;64.21;98848.91;4955698;28;40980;-78
2023/05/07 01:36:30;;;;;;;2.40;2.20;;;;;;;15.07;64.60;98833.06;4972668;28;42193;-77
2023/05/07 01:39:00;;;;;;;2.87;2.20;;;;;;;15.12;65.00;98843.34;4939252;28;42680;-77
2023/05/07 01:41:28;;;;;;;3.63;2.30;;;;;;;15.08;65.05;98847.25;4939919;28;41397;-77
2023/05/07 01:43:58;;;;;;;2.33;2.03;;;;;;;15.06;65.10;98849.19;4939192;28;38923;-79
2023/05/07 01:46:27;;;;;;;3.03;1.97;;;;;;;14.98;65.54;98839.13;4939889;28;40685;-77
2023/05/07 01:48:55;;;;;;;2.10;1.90;;;;;;;14.99;65.16;98842.63;4939365;28;41610;-77
2023/05/07 01:51:23;;;;;;;2.83;2.13;;;;;;;14.94;64.94;98845.69;4955043;28;42359;-77
2023/05/07 01:53:51;;;;;;;1.67;1.57;;;;;;;14.92;64.30;98852.09;4939065;28;39268;-78
2023/05/07 01:56:22;;;;;;;1.80;1.70;;;;;;;14.87;64.15;98851.63;4955302;28;42084;-78
2023/05/07 01:58:51;;;;;;;1.80;1.70;;;;;;;14.84;64.42;98849.19;4954372;28;42575;-78
2023/05/07 02:01:19;;;;;;;1.80;1.70;;;;;;;14.78;64.44;98847.03;4954939;28;42330;-78
2023/05/07 02:03:46;;;;;;;2.03;1.83;;;;;;;14.67;64.42;98854.06;4938699;28;39635;-76
2023/05/07 02:06:21;;;;;;;2.07;1.87;;;;;;;14.68;65.15;98847.78;4939097;28;40480;-77
2023/05/07 02:08:49;;;;;;;2.47;2.27;;;;;;;14.63;66.19;98852.59;4938912;28;43378;-78
2023/05/07 02:11:17;;;;;;;2.07;1.97;;;;;;;14.59;66.12;98848.47;4955093;28;42103;-78
2023/05/07 02:13:46;;;;;;;2.47;2.27;;;;;;;14.49;66.97;98839.50;4953911;28;39315;-77
2023/05/07 02:16:14;;;;;;;2.70;2.50;;;;;;;14.55;67.42;98849.72;4939090;28;41321;-78
2023/05/07 02:18:42;;;;;;;3.00;2.80;;;;;;;14.44;67.50;98831.06;4938782;28;41780;-79
2023/05/07 02:21:09;;;;;;;3.60;3.30;;;;;;;14.52;69.16;98849.94;4938847;28;43724;-79
2023/05/07 02:23:37;;;;;;;4.13;3.30;;;;;;;14.52;69.51;98849.94;4938779;28;41484;-77
2023/05/07 02:26:05;;;;;;;3.77;2.83;;;;;;;14.55;69.54;98852.38;4938501;28;40456;-78
2023/05/07 02:28:35;;;;;;;3.60;3.30;;;;;;;14.58;69.51;98852.13;4938292;28;43070;-78
2023/05/07 02:31:05;;;;;;;3.60;3.30;;;;;;;14.63;69.19;98855.28;4938636;28;41156;-78
2023/05/07 02:33:34;;;;;;;4.40;4.00;;;;;;;14.68;69.97;98850.44;4954778;28;40756;-77
2023/05/07 02:36:07;;;;;;;4.30;3.90;;;;;;;14.60;70.16;98834.19;4954909;28;42804;-78
2023/05/07 02:38:36;;;;;;;3.73;3.43;;;;;;;14.77;69.80;98858.66;4954793;28;41698;-77
2023/05/07 02:41:05;;;;;;;3.80;3.50;;;;;;;14.79;69.94;98852.25;4955146;28;42305;-76
2023/05/07 02:43:32;;;;;;;4.13;3.73;;;;;;;14.82;70.01;98845.81;4954576;28;40022;-77
2023/05/07 02:46:05;;;;;;;5.67;3.97;;;;;;;14.83;69.93;98843.03;4972259;28;42699;-79
2023/05/07 02:48:35;;;;;;;4.27;3.80;;;;;;;14.85;69.85;98854.41;4938292;28;42838;-77
2023/05/07 02:51:05;;;;;;;4.60;4.20;;;;;;;14.86;70.05;98848.09;4954251;28;43152;-79
2023/05/07 02:53:34;;;;;;;4.30;3.90;;;;;;;14.87;70.01;98854.28;4938348;28;41868;-77
2023/05/07 02:56:02;;;;;;;3.90;3.50;;;;;;;14.75;69.43;98829.47;4938555;28;40846;-77
2023/05/07 02:58:30;;;;;;;3.93;3.53;;;;;;;14.90;69.42;98854.03;4937550;28;41898;-77
2023/05/07 03:00:59;;;;;;;3.53;3.27;;;;;;;14.87;69.21;98848.94;4951620;28;43248;-77
2023/05/07 03:03:38;;;;;;;3.77;3.47;;;;;;;14.93;68.62;98864.47;4952903;28;41152;-78
2023/05/07 03:06:07;;;;;;;3.73;3.43;;;;;;;14.84;69.09;98849.19;4938460;28;40819;-78
2023/05/07 03:08:34;;;;;;;3.67;3.37;;;;;;;14.88;68.54;98850.66;4954206;28;42664;-77
2023/05/07 03:11:02;;;;;;;3.70;3.40;;;;;;;14.96;68.31;98872.25;4954467;28;42556;-77
2023/05/07 03:13:30;;;;;;;3.77;3.50;;;;;;;14.95;68.33;98874.06;4938113;28;40090;-77
2023/05/07 03:15:57;;;;;;;3.83;3.53;;;;;;;14.94;68.59;98866.19;4938187;28;41441;-78
2023/05/07 03:18:25;;;;;;;3.27;2.97;;;;;;;14.94;68.40;98866.19;4954244;28;42870;-77
2023/05/07 03:20:54;;;;;;;3.97;3.57;;;;;;;14.95;68.42;98868.72;4938512;28;41404;-79
2023/05/07 03:23:21;;;;;;;3.70;3.40;;;;;;;14.96;68.59;98864.25;4954201;28;40895;-77
2023/05/07 03:25:49;;;;;;;3.97;3.67;;;;;;;14.96;68.46;98873.06;4941706;28;40725;-79
2023/05/07 03:28:17;;;;;;;5.13;3.70;;;;;;;14.97;68.63;98872.09;4957479;28;42583;-77
2023/05/07 03:30:51;;;;;;;4.00;3.70;;;;;;;14.96;68.77;98866.91;4954845;28;43007;-78
2023/05/07 03:33:18;;;;;;;4.27;3.97;;;;;;;14.96;69.31;98869.56;4941228;28;38909;-76
2023/05/07 03:35:46;;;;;;;5.20;4.70;;;;;;;14.97;69.73;98871.25;4941512;28;40686;-78
2023/05/07 03:38:21;;;;;;;4.70;4.30;;;;;;;14.97;69.47;98871.25;4941318;28;41671;-78
2023/05/07 03:40:48;;;;;;;5.87;4.97;;;;;;;14.96;69.80;98869.56;4941350;28;41335;-77
2023/05/07 03:43:17;;;;;;;5.43;4.47;;;;;;;14.99;69.75;98879.97;4940981;28;39773;-77
2023/05/07 03:45:49;;;;;;;4.60;4.20;;;;;;;15.01;70.16;98883.38;4941276;28;40642;-77
2023/05/07 03:48:22;;;;;;;4.63;4.23;;;;;;;15.03;69.98;98881.44;4941011;28;41658;-78
2023/05/07 03:50:51;;;;;;;4.77;4.37;;;;;;;15.05;70.37;98880.34;4941301;28;42912;-77
2023/05/07 03:53:23;;;;;;;5.83;5.30;;;;;;;15.05;70.56;98877.66;4957223;28;41034;-77
2023/05/07 03:55:51;;;;;;;6.00;4.83;;;;;;;15.05;70.33;98879.50;4941385;28;40271;-78
2023/05/07 03:58:19;;;;;;;5.20;4.80;;;;;;;15.07;70.52;98885.56;4974288;28;42454;-77
2023/05/07 04:00:47;;;;;;;6.20;5.70;;;;;;;15.08;70.71;98876.59;4941054;28;41898;-79
2023/05/07 04:03:26;;;;;;;6.03;5.20;;;;;;;15.03;70.96;98881.44;4972606;28;41010;-77
2023/05/07 04:05:54;;;;;;;6.13;5.57;;;;;;;15.08;70.81;98889.91;4940815;28;41751;-78
2023/05/07 04:08:24;;;;;;;6.07;5.57;;;;;;;15.08;71.33;98884.59;4940839;28;41583;-78
2023/05/07 04:10:58;;;;;;;6.23;5.60;;;;;;;15.09;71.48;98881.78;4954295;28;42561;-79
2023/05/07 04:13:30;;;;;;;6.90;6.20;;;;;;;15.10;71.98;98885.28;4940843;28;39930;-77
2023/05/07 04:15:58;;;;;;;7.83;5.80;;;;;;;15.15;71.81;98885.78;4940741;28;40843;-78
2023/05/07 04:18:27;;;;;;;6.00;5.50;;;;;;;15.22;71.15;98891.44;4956667;28;42812;-79
2023/05/07 04:20:55;;;;;;;6.30;5.70;;;;;;;15.24;71.04;98893.03;4956940;28;42268;-79
2023/05/07 04:23:24;;;;;;;6.77;6.17;;;;;;;15.28;70.92;98885.63;4940875;28;40148;-78
2023/05/07 04:25:54;;;;;;;6.03;5.50;;;;;;;15.22;70.87;98876.28;4956784;28;41833;-78
2023/05/07 04:28:37;;;;;;;6.33;5.73;;;;;;;15.31;70.96;98885.38;4954947;28;43389;-77
2023/05/07 04:31:05;;;;;;;6.53;5.93;;;;;;;15.35;71.40;98887.66;4955834;28;40979;-78
2023/05/07 04:33:35;;;;;;;6.63;6.10;;;;;;;15.32;71.24;98871.94;4956181;28;41825;-79
2023/05/07 04:36:04;;;;;;;7.47;6.83;;;;;;;15.37;71.38;98884.88;4956136;28;41687;-78
2023/05/07 04:38:38;;;;;;;7.30;6.60;;;;;;;15.36;71.49;98884.03;4940352;28;41764;-77
2023/05/07 04:41:07;;;;;;;6.23;5.67;;;;;;;15.35;71.40;98885.00;4940342;28;42513;-77
2023/05/07 04:43:39;;;;;;;7.17;6.47;;;;;;;15.36;71.38;98886.69;4940011;28;39612;-78
2023/05/07 04:46:07;;;;;;;6.17;5.57;;;;;;;15.37;71.30;98880.38;4956620;28;42776;-79
2023/05/07 04:48:35;;;;;;;6.93;6.37;;;;;;;15.36;71.77;98878.69;4940136;28;42467;-78
2023/05/07 04:51:06;;;;;;;6.20;5.70;;;;;;;15.43;71.20;98885.25;4956256;28;41480;-78
2023/05/07 04:53:34;;;;;;;5.50;5.07;;;;;;;15.53;70.94;98895.16;4940111;28;38919;-78
2023/05/07 04:56:03;;;;;;;6.80;6.20;;;;;;;15.66;70.63;98895.88;4956106;28;40772;-76
2023/05/07 04:58:38;;;;;;;6.23;5.37;;;;;;;15.70;70.39;98882.13;4939592;28;42488;-77
2023/05/07 05:01:06;;;;;;;6.13;5.60;;;;;;;15.85;69.65;98898.69;4956212;28;43301;-78
2023/05/07 05:03:34;;;;;;;6.50;6.00;;;;;;;15.96;69.46;98909.31;4940082;28;39818;-79
2023/05/07 05:06:02;;;;;;;6.03;5.43;;;;;;;16.04;69.15;98912.22;4940083;28;42256;-77
2023/05/07 05:08:33;;;;;;;6.30;5.70;;;;;;;16.11;69.05;98913.38;4954563;28;43020;-79
2023/05/07 05:11:04;;;;;;;6.43;5.80;;;;;;;16.23;68.85;98916.84;4940209;28;42132;-78
2023/05/07 05:13:34;;;;;;;6.10;5.57;;;;;;;16.28;68.55;98919.13;4939919;28;38935;-77
2023/05/07 05:16:05;;;;;;;5.70;5.20;;;;;;;16.38;68.56;98928.06;4939830;28;42328;-76
2023/05/07 05:18:33;;;;;;;5.80;5.30;;;;;;;16.35;67.90;98917.63;4939697;28;42755;-78
2023/05/07 05:21:01;;;;;;;7.87;7.17;;;;;;;16.50;68.06;98929.69;4955751;28;43110;-79
2023/05/07 05:23:30;;;;;;;5.50;5.00;;;;;;;16.54;68.18;98936.47;4955519;28;40992;-79
2023/05/07 05:25:58;;;;;;;6.27;5.77;;;;;;;16.62;67.80;98938.50;4939577;28;41086;-79
2023/05/07 05:28:29;;;;;;;7.57;6.70;;;;;;;16.68;67.54;98928.16;4939335;28;42466;-77
2023/05/07 05:30:57;;;;;;;6.07;5.57;;;;;;;16.73;67.31;98936.63;4939637;28;42295;-78
2023/05/07 05:33:28;;;;;;;5.73;5.13;;;;;;;16.83;67.41;98942.00;4939412;28;42123;-77
2023/05/07 05:36:02;;;;;;;6.43;5.90;;;;;;;16.96;67.44;98942.63;4956039;28;40692;-79
2023/05/07 05:38:29;;;;;;;6.30;5.70;;;;;;;17.06;66.83;98937.34;4939294;28;43219;-79
2023/05/07 05:40:58;;;;;;;6.73;6.13;;;;;;;17.22;66.72;98943.03;4939804;28;41097;-79
2023/05/07 05:43:25;;;;;;;6.73;6.13;;;;;;;17.33;66.13;98940.25;4955103;28;39076;-78
2023/05/07 05:45:56;;;;;;;7.40;6.70;;;;;;;17.44;65.71;98937.44;4955511;28;41690;-79
2023/05/07 05:48:24;;;;;;;6.77;6.17;;;;;;;17.56;65.32;98930.16;4938081;28;43154;-80
2023/05/07 05:50:52;;;;;;;5.97;5.47;;;;;;;17.62;64.81;98944.81;4955662;28;42475;-79
2023/05/07 05:53:20;;;;;;;7.80;7.10;;;;;;;17.73;64.79;98936.69;4939401;28;38543;-78
2023/05/07 05:55:47;;;;;;;6.30;5.70;;;;;;;17.75;63.32;98945.44;4939612;28;41045;-78
2023/05/07 05:58:16;;;;;;;6.97;6.27;;;;;;;17.71;63.05;98946.69;4955188;28;42711;-78
2023/05/07 06:00:52;;;;;;;7.07;6.47;;;;;;;17.64;63.37;98942.91;4939733;28;41399;-78
2023/05/07 06:03:21;;;;;;;7.33;6.50;;;;;;;17.71;63.45;98952.06;4939007;28;38468;-80
2023/05/07 06:05:49;;;;;;;7.30;6.70;;;;;;;17.79;62.89;98958.44;4939465;28;41919;-78
2023/05/07 06:08:18;;;;;;;8.07;7.37;;;;;;;17.80;62.82;98959.28;4953550;28;42879;-77
2023/05/07 06:10:46;;;;;;;7.33;6.70;;;;;;;17.72;62.36;98943.03;4954950;28;42240;-79
2023/05/07 06:13:13;;;;;;;7.77;7.07;;;;;;;17.87;62.23;98973.81;4959192;28;41709;-77
2023/05/07 06:15:42;;;;;;;7.50;6.80;;;;;;;17.84;62.18;98966.88;4942196;28;40791;-79
2023/05/07 06:18:13;;;;;;;8.73;7.10;;;;;;;17.98;62.46;98972.81;4984678;28;42620;-79
2023/05/07 06:20:43;;;;;;;7.10;6.30;;;;;;;18.12;62.23;98970.59;4958906;28;42298;-80
2023/05/07 06:23:19;;;;;;;8.07;7.37;;;;;;;18.26;61.89;98974.69;4962579;28;39961;-78
2023/05/07 06:25:49;;;;;;;6.93;6.33;;;;;;;18.40;61.47;98963.53;4953453;28;41655;-79
2023/05/07 06:28:17;;;;;;;7.17;6.47;;;;;;;18.58;60.92;98969.88;4952068;28;42858;-79
2023/05/07 06:30:45;;;;;;;7.03;6.33;;;;;;;18.77;61.00;98970.84;4957370;28;42319;-78
2023/05/07 06:33:13;;;;;;;7.57;6.87;;;;;;;18.94;60.08;98992.41;4945586;28;39051;-77
2023/05/07 06:35:40;;;;;;;6.40;5.80;;;;;;;19.04;59.78;98996.91;4942893;28;40919;-78
2023/05/07 06:38:10;;;;;;;7.63;6.90;;;;;;;19.12;59.58;98991.66;4938205;28;41917;-78
2023/05/07 06:40:38;;;;;;;7.50;6.77;;;;;;;19.24;59.29;98990.47;4956572;28;42549;-79
2023/05/07 06:43:05;;;;;;;6.43;5.83;;;;;;;19.44;59.00;98992.06;4973251;28;39879;-78
2023/05/07 06:45:56;;;;;;;7.27;6.60;;;;;;;19.75;57.87;98994.50;4981653;28;40729;-81
2023/05/07 06:48:24;;;;;;;7.00;6.40;;;;;;;20.08;57.55;98985.78;4973770;28;42896;-80
2023/05/07 06:50:58;;;;;;;6.93;6.33;;;;;;;20.60;56.42;99002.09;4943006;28;42316;-78
2023/05/07 06:53:30;;;;;;;8.17;7.40;;;;;;;20.92;54.76;99028.41;4954477;28;38951;-81
2023/05/07 06:55:59;;;;;;;6.27;5.77;;;;;;;21.00;53.88;99021.25;4956922;28;41440;-78
2023/05/07 06:58:27;;;;;;;7.63;6.93;;;;;;;21.02;53.46;99002.22;4990087;28;43797;-79
2023/05/07 07:00:54;;;;;;;7.47;6.87;;;;;;;21.28;53.52;99013.88;4959965;28;42239;-81
2023/05/07 07:03:22;;;;;;;7.10;6.50;;;;;;;21.36;52.28;99027.41;4955552;28;40210;-77
2023/05/07 07:05:52;;;;;;;7.83;7.13;;;;;;;21.34;51.79;99039.34;4976708;28;42505;-78
2023/05/07 07:08:21;;;;;;;9.33;7.37;;;;;;;21.25;51.81;99032.22;4942660;28;41876;-78
2023/05/07 07:10:50;;;;;;;8.03;7.33;;;;;;;21.21;51.48;99023.59;4988506;28;42268;-80
2023/05/07 07:13:17;;;;;;;7.77;7.13;;;;;;;21.24;51.88;99030.53;4970671;28;40222;-78
2023/05/07 07:15:45;;;;;;;7.17;6.47;;;;;;;21.38;52.46;99024.56;4963669;28;43188;-79
2023/05/07 07:18:13;;;;;;;7.20;6.50;;;;;;;21.62;52.00;99034.59;4970758;28;42674;-79
2023/05/07 07:20:41;;;;;;;7.47;6.73;;;;;;;21.97;51.86;99031.72;4942389;28;42370;-80
2023/05/07 07:23:09;;;;;;;7.27;6.57;;;;;;;22.25;50.36;99040.41;4951655;28;40509;-78
2023/05/07 07:25:37;;;;;;;7.43;6.70;;;;;;;22.51;49.46;99049.19;4944608;28;40674;-80
2023/05/07 07:28:07;;;;;;;6.93;5.87;;;;;;;22.88;49.63;99045.19;4975064;28;43644;-77
2023/05/07 07:30:35;;;;;;;6.40;5.77;;;;;;;23.34;49.54;99037.38;4975876;28;42319;-80
2023/05/07 07:33:03;;;;;;;6.70;6.10;;;;;;;23.62;48.00;99030.56;4975556;28;39684;-79
2023/05/07 07:35:34;;;;;;;7.13;6.53;;;;;;;23.99;48.01;99038.00;4960342;28;41526;-78
2023/05/07 07:38:02;;;;;;;6.90;6.30;;;;;;;24.13;47.09;99020.19;4975932;28;43758;-79
2023/05/07 07:40:30;;;;;;;6.47;5.80;;;;;;;24.58;46.32;99050.03;4979861;28;42202;-80
2023/05/07 07:43:01;;;;;;;6.57;5.97;;;;;;;24.76;45.46;99059.72;4928992;28;39196;-78
2023/05/07 07:45:31;;;;;;;7.10;6.50;;;;;;;24.86;44.31;99060.31;4968374;28;41554;-79
2023/05/07 07:47:58;;;;;;;6.83;6.33;;;;;;;25.04;44.08;99056.28;4952265;28;42776;-79
2023/05/07 07:50:26;;;;;;;6.33;5.83;;;;;;;25.20;43.24;99065.31;4958832;28;42350;-79
2023/05/07 07:52:54;;;;;;;6.50;5.90;;;;;;;25.18;43.11;99070.91;4956702;28;40059;-82
2023/05/07 07:55:24;;;;;;;6.80;6.20;;;;;;;25.03;43.52;99070.03;4947154;28;42660;-79
2023/05/07 07:57:54;;;;;;;5.97;5.47;;;;;;;24.81;44.11;99051.91;4948432;28;42860;-80
2023/05/07 08:00:23;;;;;;;5.80;5.30;;;;;;;24.45;44.32;99038.97;4954871;28;42389;-78
2023/05/07 08:02:56;;;;;;;6.83;6.23;;;;;;;24.34;45.57;99039.38;4957114;28;39742;-78
2023/05/07 08:05:28;;;;;;;6.63;6.13;;;;;;;24.13;45.17;99018.31;4948852;28;42769;-78
2023/05/07 08:07:56;;;;;;;6.43;5.93;;;;;;;24.13;44.40;99056.19;4972868;28;43249;-80
2023/05/07 08:10:28;;;;;;;6.70;6.10;;;;;;;23.83;44.86;99038.94;4953248;28;42263;-78
2023/05/07 08:13:03;;;;;;;6.50;5.90;;;;;;;23.74;45.20;99034.56;4944419;28;39865;-80
2023/05/07 08:15:31;;;;;;;6.40;5.80;;;;;;;23.85;46.50;99031.50;4963493;28;42262;-80
2023/05/07 08:18:00;;;;;;;6.27;5.67;;;;;;;23.98;46.40;99009.28;4950406;28;41683;-80
2023/05/07 08:20:29;;;;;;;6.50;5.90;;;;;;;23.93;45.09;98996.28;4942014;28;41905;-81
2023/05/07 08:22:57;;;;;;;5.30;4.90;;;;;;;24.44;44.99;99048.09;4926657;28;39990;-79
2023/05/07 08:25:26;;;;;;;5.67;5.07;;;;;;;24.83;45.16;99057.97;4946345;28;41314;-78
2023/05/07 08:27:55;;;;;;;5.60;5.20;;;;;;;25.07;44.44;99065.94;4964852;28;41882;-78
2023/05/07 08:30:23;;;;;;;6.93;5.83;;;;;;;25.28;43.56;99068.78;4955331;28;42028;-80
2023/05/07 08:32:52;;;;;;;6.30;5.70;;;;;;;25.41;42.64;99082.53;4970965;28;39763;-82
2023/05/07 08:35:21;;;;;;;5.97;5.47;;;;;;;25.40;42.42;99072.72;4962592;28;41859;-78
2023/05/07 08:37:48;;;;;;;6.93;6.00;;;;;;;25.32;42.30;99070.09;4945345;28;41657;-80
2023/05/07 08:40:19;;;;;;;6.80;5.80;;;;;;;25.26;42.11;99076.25;4965171;28;42774;-80
2023/05/07 08:42:49;;;;;;;5.73;5.20;;;;;;;25.47;43.03;99063.84;4990480;28;40890;-81
2023/05/07 08:45:19;;;;;;;5.97;5.47;;;;;;;25.69;42.64;99068.38;4975415;28;41758;-79
2023/05/07 08:47:52;;;;;;;6.20;5.40;;;;;;;25.90;41.41;99073.03;4964875;28;42348;-79
2023/05/07 08:50:24;;;;;;;6.73;5.33;;;;;;;26.11;41.32;99071.22;4954455;28;41429;-81
2023/05/07 08:52:52;;;;;;;5.53;5.10;;;;;;;26.45;41.61;99077.94;4942841;28;40086;-81
2023/05/07 08:55:22;;;;;;;6.13;5.63;;;;;;;26.47;40.59;99073.97;4968236;28;43079;-81
2023/05/07 08:57:49;;;;;;;6.23;5.63;;;;;;;26.46;40.66;99068.72;4966101;28;42659;-80
2023/05/07 09:00:19;;;;;;;5.10;4.70;;;;;;;26.71;41.91;99074.63;4944099;28;41306;-78
2023/05/07 09:02:50;;;;;;;5.43;5.03;;;;;;;27.02;39.41;99087.94;4955313;28;38783;-78
2023/05/07 09:05:18;;;;;;;5.83;5.33;;;;;;;27.44;40.20;99084.31;4977878;28;41616;-81
2023/05/07 09:07:48;;;;;;;5.83;5.33;;;;;;;28.05;38.33;99088.09;4964451;28;43243;-78
2023/05/07 09:10:16;;;;;;;5.40;5.00;;;;;;;28.35;39.21;99087.81;4953916;28;42593;-78
2023/05/07 09:12:48;;;;;;;6.53;6.03;;;;;;;28.36;37.54;99086.75;4958121;28;41391;-79
2023/05/07 09:15:16;;;;;;;6.23;5.63;;;;;;;27.92;37.76;99109.78;4958333;28;40958;-80
2023/05/07 09:17:45;;;;;;;5.80;5.30;;;;;;;27.48;38.47;99091.88;4958301;28;41751;-81
2023/05/07 09:20:13;;;;;;;6.00;5.40;;;;;;;27.14;40.13;99080.94;4958156;28;41302;-81
2023/05/07 09:22:42;;;;;;;5.60;5.10;;;;;;;26.98;39.51;99089.38;4941734;28;39518;-79
2023/05/07 09:25:14;;;;;;;6.30;5.80;;;;;;;26.80;40.25;99087.94;4971616;28;41786;-79
2023/05/07 09:27:44;;;;;;;5.63;5.13;;;;;;;26.80;41.81;99082.50;4965426;28;20278;-78
2023/05/07 09:30:13;;;;;;;7.33;6.73;;;;;;;26.75;39.27;99090.38;4952034;28;41331;-79
2023/05/07 09:32:41;;;;;;;5.80;5.30;;;;;;;26.82;40.78;99080.44;4939984;28;41110;-79
2023/05/07 09:35:18;;;;;;;5.07;4.67;;;;;;;27.34;39.42;99090.09;4968406;28;40712;-80
2023/05/07 09:37:50;;;;;;;5.93;5.43;;;;;;;28.15;39.07;99085.81;4965254;28;45168;-78
2023/05/07 09:40:23;;;;;;;6.33;5.83;;;;;;;29.24;36.68;99099.31;4940577;28;40977;-79
2023/05/07 09:42:52;;;;;;;6.47;5.97;;;;;;;30.24;35.24;99101.72;4954076;28;40019;-79
2023/05/07 09:45:24;;;;;;;5.67;5.17;;;;;;;31.42;35.12;99082.91;4945738;28;41127;-82
2023/05/07 09:47:56;;;;;;;5.87;5.37;;;;;;;32.96;30.55;99117.41;4946963;28;43171;-81
2023/05/07 09:50:28;;;;;;;5.80;5.20;;;;;;;33.76;29.86;99110.41;4954005;28;41375;-82
2023/05/07 09:52:58;;;;;;;5.53;5.10;;;;;;;33.74;29.25;99096.06;4955928;28;39943;-79
2023/05/07 09:55:28;;;;;;;5.47;4.97;;;;;;;34.61;30.38;99106.22;4950373;28;40851;-80
2023/05/07 09:57:56;;;;;;;5.43;5.03;;;;;;;34.68;28.53;99126.16;4949676;28;41851;-79
2023/05/07 10:00:26;;;;;;;4.40;4.00;;;;;;;34.41;29.50;99114.88;4958632;28;42164;-81
2023/05/07 10:03:02;;;;;;;5.27;4.80;;;;;;;34.76;29.74;99112.03;4942480;28;38647;-80
2023/05/07 10:05:39;;;;;;;5.80;4.73;;;;;;;34.95;28.09;99124.50;4961492;28;42193;-80
2023/05/07 10:08:08;;;;;;;5.47;4.97;;;;;;;35.25;28.05;99116.81;4960821;28;42632;-80
2023/05/07 10:10:40;;;;;;;4.90;4.50;;;;;;;35.32;28.84;99110.31;4942006;28;41779;-81
2023/05/07 10:13:11;;;;;;;5.20;4.80;;;;;;;35.21;28.04;99126.63;4963608;28;40029;-82
2023/05/07 10:15:42;;;;;;;4.47;4.07;;;;;;;35.19;29.37;99111.44;4934141;28;40926;-80
2023/05/07 10:18:10;;;;;;;4.80;4.40;;;;;;;35.40;29.17;99118.16;4935476;28;43894;-79
2023/05/07 10:20:40;;;;;;;4.77;4.30;;;;;;;35.34;29.49;99109.00;4923554;28;41297;-80
2023/05/07 10:23:15;;;;;;;4.77;4.37;;;;;;;35.82;29.21;99094.59;4939149;28;41301;-79
2023/05/07 10:25:48;;;;;;;4.70;4.30;;;;;;;36.28;28.77;99070.41;4951628;28;41648;-78
2023/05/07 10:28:25;;;;;;;4.93;4.57;;;;;;;37.51;26.61;99112.00;4968971;28;43742;-81
2023/05/07 10:31:05;;;;;;;4.82;4.43;;;;;;;37.70;24.82;99121.59;4935369;28;42316;-79
2023/05/07 10:33:40;;;;;;;4.88;4.47;;;;;;;37.66;24.51;99109.38;4919292;28;40604;-79
2023/05/07 10:36:09;;;;;;;4.80;4.40;;;;;;;37.96;25.02;99104.03;4942940;28;42556;-81
2023/05/07 10:38:38;;;;;;;4.03;3.72;;;;;;;37.24;26.22;99096.31;4954177;28;43752;-82
2023/05/07 10:41:08;;;;;;;4.63;4.22;;;;;;;36.91;27.58;99080.81;4954024;28;42390;-79
2023/05/07 10:43:46;;;;;;;4.43;4.13;;;;;;;37.05;26.51;99075.69;4953177;28;39932;-78
2023/05/07 10:46:35;;;;;;;4.53;4.13;;;;;;;37.09;26.71;99082.38;4953212;28;40764;-81
2023/05/07 10:49:17;;;;;;;5.00;4.60;;;;;;;36.26;26.38;99091.91;4938409;28;41880;-79
2023/05/07 10:52:16;;;;;;;5.20;4.73;;;;;;;34.92;27.15;99078.19;4970441;28;42019;-81
2023/05/07 10:55:21;;;;;;;4.57;4.27;;;;;;;34.06;27.85;99074.53;4938899;28;39368;-79
2023/05/07 10:58:24;;;;;;;4.37;3.97;;;;;;;33.50;29.03;99069.69;4933248;28;41716;-82
2023/05/07 11:00:59;;;;;;;5.13;4.63;;;;;;;34.03;29.08;99074.19;4925224;28;45379;-81
2023/05/07 11:03:32;;;;;;;4.17;3.80;;;;;;;33.92;29.07;99066.78;4952834;28;42599;-79
2023/05/07 11:06:13;;;;;;;4.40;4.00;;;;;;;33.89;28.12;99079.09;4947619;28;39922;-80
2023/05/07 11:09:04;;;;;;;4.43;4.13;;;;;;;34.37;29.50;99061.47;4934587;28;42651;-81
2023/05/07 11:11:52;;;;;;;3.77;3.47;;;;;;;34.75;28.97;99061.63;4948258;28;41899;-78
2023/05/07 11:14:55;;;;;;;3.90;3.60;;;;;;;34.96;28.87;99054.63;4937501;28;42259;-78
2023/05/07 11:17:34;;;;;;;4.57;4.03;;;;;;;34.66;27.86;99065.03;4937349;28;40405;-81
2023/05/07 11:20:07;;;;;;;3.77;3.47;;;;;;;34.65;28.39;99066.94;4938489;28;41679;-80
2023/05/07 11:22:57;;;;;;;4.27;3.93;;;;;;;34.67;27.55;99070.28;4951639;28;42742;-80
2023/05/07 11:25:45;;;;;;;4.00;3.70;;;;;;;34.89;28.67;99062.19;4934239;28;41479;-79
2023/05/07 11:28:19;;;;;;;4.37;3.97;;;;;;;34.51;28.40;99071.91;4919317;28;39215;-80
2023/05/07 11:30:57;;;;;;;4.30;4.00;;;;;;;34.19;28.90;99056.94;4925133;28;42061;-80
2023/05/07 11:33:26;;;;;;;3.90;3.60;;;;;;;34.05;29.51;99061.03;4937569;28;41429;-79
2023/05/07 11:35:55;;;;;;;5.00;4.10;;;;;;;34.05;28.10;99055.53;4949886;28;42074;-81
2023/05/07 11:38:26;;;;;;;4.07;3.67;;;;;;;33.83;28.77;99047.94;4950492;28;39185;-78
2023/05/07 11:40:54;;;;;;;4.10;3.80;;;;;;;34.06;28.66;99063.53;4933690;28;40910;-81
2023/05/07 11:43:22;;;;;;;3.80;3.50;;;;;;;34.52;29.75;99056.22;4934242;28;41816;-79
2023/05/07 11:45:50;;;;;;;4.10;3.80;;;;;;;35.00;29.51;99046.66;4939123;28;42693;-81
2023/05/07 11:48:21;;;;;;;4.30;4.00;;;;;;;35.36;29.89;99028.88;4974365;28;40855;-81
2023/05/07 11:50:53;;;;;;;5.50;3.70;;;;;;;36.16;28.41;99034.66;4971005;28;41804;-84